Kezdőlap
METAR-TAF:

METAR-TAF

Repülőterek :

Ilulissat, Grönland

földrajzi szélesség: 69-14N, földrajzi hosszúság: 051-04W, magasság: 29 m

Jelenlegi meteorológiai megfigyelések

A jelentés 55 perccel ezelõtt készült, 05:50 UTC
Szélcsend
Hőmérséklet 4°C
Páratartalom 87%
Légköri nyomás 1023 hPa
Látótávolság 10 km, vagy több

METAR: BGJN 160550Z AUTO 00000KT 9999NDV SCT160/// 04/02 Q1023

Idő: 04:45 (06:45 UTC)

Előrejelzés

A jelentés 7 órával és 32 perccel ezelõtt készült, 23:13 UTC
Az előrejelzés 16-én 00 óra UTC és 16-én 04 óra UTC között érvényes
Északi szél 6 kt
Látótávolság 10 km, vagy több
Kevés felhő 2000 lábon
Szórványos felhőzet 9000 lábon
16-én 00 óra UTC és 16-én 04 óra UTC között ideiglenes
Szakadozott felhőzet 8000 lábon

TAF: BGJN 152313Z 1600/1604 35006KT 9999 FEW020 SCT090 TEMPO 1600/1604 BKN080

Meteorológiai megfigyelések és előrejelzések több, mint 4000 repülőtéren (METAR és TAF jelentéseket).

A térképen piros és sárga pontok jelzik az elérhető meteorológiai állomásokat.

Mozgassa az egeret a pont fölött, hogy megjelenjen az állomás neve.

Azután kattintson az időjárási megfigyelések és előrejelzések megtekintéséhez.

A térkép megváltoztatása: kattintson a fekete keresztel jelölt zöld gombra ráközelítéshez, a vonallal jelölt zöld gombra távolításhoz, vagy a zöld nyilakra a szomszédos térképek eléréséhez.


METAR-TAF: